NLWW

Details ICAO NLWW (WLS)
Name WALLIS
Region Wallis and Futuna
Timezone Unknown (UTC+0.0)
Plans Departing 11
Arriving 11
Stats Elevation 79 ft / 24 m (AMSL)
Location -13.238320° -176.199267°
Runways 1
Magnetic Variation 11.543° E
Sunrise 2018-05-20 17:58:50 UTC / 2018-05-20 17:58:50 Local
Sunset 2018-05-21 05:26:43 UTC / 2018-05-21 05:26:43 Local
Advertisement - Login to hide

Runways

ID Width Length Bearing (true) Bearing (mag) Surface Threshold Offset Overrun Length
08 148 ft / 45 m 6,895 ft / 2,102 m 89.90° 78.36° Asphalt 0 ft / 0 m 0 ft / 0 m
26 148 ft / 45 m 6,895 ft / 2,102 m 269.90° 258.36° Asphalt 0 ft / 0 m 0 ft / 0 m

Map

Weather


0- 5 10 15 20 25 30 35+ Temperature / ° C

Clouds and Precipitation
Forecast for 2018-05-20 18:00 UTC. Updated 5 hours ago

Ground ~20,000 ft ~40,000 ft Winds

METAR

Not found

TAF

TAF NLWW 201700Z 2018/2118 13006KT 9999 FEW020 PROB40 TEMPO 2018/2020 SHRA FEW025TCU

Frequencies

Tower 118.30 MHz INFO
Warning: Do not use this data for real-world aviation or navigation. No guarantee of current accuracy is given.